La Carlota, Spain
Current Conditions -  °F | °C
As of 8:00 PM on Thursday 27 Nov 2014 (Local Time) from LEBA Reporting Station
Clear Clear  
Wind Chill: 57°   Ceiling: Unl
Heat Index: 57°   Visibility: 6mi
Dew Point: 46°   Wind: 16mph
Humidity: 67%   Direction: 180°S
Pressure: 29.35"   Gusts: 28mph
Location:  37.67°N, 4.93°W
Report Text: LEBA 271900Z 18014G24KT 140V200 CAVOK 14/08 Q0994
Loading
Personal Weather Stations






























Interactive Weather Map New forecast layout! Learn more

10-Day Weather Forecast

Advertisements
Track Severe Weather on mobile